Time;durP1;ratioP1;P1;durP2;ratioP2;P2;SDS_P1;SDS_P2;PMS_P1;PMS_P2;Temp;Humidity;BMP_temperature;BMP_pressure;BME280_temperature;BME280_humidity;BME280_pressure;Samples;Min_cycle;Max_cycle;Signal;HPM_P1;HPM_P2
2022/12/31 00:01:19;;;;;;;6.25;1.52;;;11.30;99.90;;;;;;5047678;28;20127;-54
2022/12/31 00:03:46;;;;;;;7.35;1.42;;;11.30;99.90;;;;;;5038379;28;20432;-54
2022/12/31 00:06:13;;;;;;;4.85;1.27;;;11.30;99.90;;;;;;5041890;28;20076;-49
2022/12/31 00:08:40;;;;;;;8.27;1.50;;;11.30;99.90;;;;;;5033639;28;20431;-55
2022/12/31 00:11:07;;;;;;;7.13;1.98;;;11.30;99.90;;;;;;5050765;28;20056;-53
2022/12/31 00:13:34;;;;;;;8.63;1.80;;;11.30;99.90;;;;;;5053573;28;20053;-53
2022/12/31 00:16:00;;;;;;;7.75;1.85;;;11.30;99.90;;;;;;5054303;28;20102;-52
2022/12/31 00:18:35;;;;;;;9.75;1.88;;;11.30;99.90;;;;;;5053936;28;20061;-55
2022/12/31 00:21:02;;;;;;;11.93;2.05;;;11.30;99.90;;;;;;5054349;28;20087;-53
2022/12/31 00:23:29;;;;;;;10.65;1.90;;;11.30;99.90;;;;;;5043536;28;20046;-50
2022/12/31 00:25:55;;;;;;;11.63;2.13;;;11.30;99.90;;;;;;5034207;28;20103;-51
2022/12/31 00:28:22;;;;;;;11.18;1.92;;;11.30;99.90;;;;;;5034185;28;20050;-54
2022/12/31 00:30:49;;;;;;;10.68;2.25;;;11.30;99.90;;;;;;5034089;28;20057;-48
2022/12/31 00:33:15;;;;;;;10.52;2.80;;;11.30;99.90;;;;;;5033969;28;20457;-55
2022/12/31 00:35:42;;;;;;;11.88;2.25;;;11.30;99.90;;;;;;5033836;28;20041;-48
2022/12/31 00:38:09;;;;;;;12.98;2.50;;;11.30;99.90;;;;;;5034196;28;20049;-54
2022/12/31 00:40:36;;;;;;;8.32;1.92;;;11.30;99.90;;;;;;5033735;28;20041;-53
2022/12/31 00:43:02;;;;;;;10.77;2.47;;;11.30;99.90;;;;;;5034142;28;20354;-53
2022/12/31 00:45:29;;;;;;;13.20;2.03;;;11.20;99.90;;;;;;5033699;28;20100;-50
2022/12/31 00:47:56;;;;;;;8.35;2.08;;;11.20;99.90;;;;;;5033949;28;20092;-52
2022/12/31 00:50:22;;;;;;;14.90;2.60;;;11.20;99.90;;;;;;5040054;28;20370;-51
2022/12/31 00:52:49;;;;;;;12.38;2.05;;;11.20;99.90;;;;;;5048550;28;20160;-55
2022/12/31 00:55:16;;;;;;;12.00;2.45;;;11.20;99.90;;;;;;5033928;28;20049;-47
2022/12/31 00:57:43;;;;;;;11.85;2.78;;;11.20;99.90;;;;;;5033353;28;20087;-51
2022/12/31 01:00:09;;;;;;;7.95;1.85;;;11.20;99.90;;;;;;5033540;28;20084;-51
2022/12/31 01:02:36;;;;;;;9.52;1.90;;;11.20;99.90;;;;;;5033186;28;20096;-53
2022/12/31 01:05:03;;;;;;;11.52;2.08;;;11.10;99.90;;;;;;5033716;28;20048;-50
2022/12/31 01:07:30;;;;;;;10.77;2.05;;;11.10;99.90;;;;;;5033399;28;20045;-51
2022/12/31 01:09:57;;;;;;;8.77;2.20;;;11.10;99.90;;;;;;5033336;28;20041;-54
2022/12/31 01:12:23;;;;;;;10.00;2.05;;;11.10;99.90;;;;;;5033434;28;20087;-52
2022/12/31 01:14:50;;;;;;;12.25;2.60;;;11.10;99.90;;;;;;5033510;28;20540;-50
2022/12/31 01:17:17;;;;;;;11.65;2.53;;;11.10;99.90;;;;;;5032989;28;20045;-55
2022/12/31 01:19:44;;;;;;;10.13;2.70;;;11.10;99.90;;;;;;5045625;28;20110;-54
2022/12/31 01:22:11;;;;;;;12.30;2.55;;;11.10;99.90;;;;;;5053262;28;20037;-49
2022/12/31 01:24:37;;;;;;;13.30;2.22;;;11.10;99.90;;;;;;5033705;28;20443;-53
2022/12/31 01:27:04;;;;;;;15.05;3.47;;;11.10;99.90;;;;;;5033295;28;20045;-50
2022/12/31 01:29:31;;;;;;;12.35;2.05;;;11.00;99.90;;;;;;5033665;28;20049;-49
2022/12/31 01:31:57;;;;;;;13.82;2.38;;;11.00;99.90;;;;;;5033128;28;20103;-55
2022/12/31 01:34:24;;;;;;;11.95;2.15;;;11.00;99.90;;;;;;5033363;28;20049;-52
2022/12/31 01:36:51;;;;;;;10.18;2.42;;;11.00;99.90;;;;;;5048836;28;20068;-55
2022/12/31 01:39:18;;;;;;;13.95;2.53;;;11.00;99.90;;;;;;5053404;28;20045;-56
2022/12/31 01:41:44;;;;;;;14.85;2.83;;;11.00;99.90;;;;;;5053236;28;20033;-52
2022/12/31 01:44:11;;;;;;;12.93;2.35;;;11.00;99.90;;;;;;5052928;28;20116;-51
2022/12/31 01:46:38;;;;;;;11.27;2.50;;;11.00;99.90;;;;;;5052972;28;20045;-48
2022/12/31 01:49:05;;;;;;;12.70;2.40;;;10.90;99.90;;;;;;5052782;28;20403;-55
2022/12/31 01:51:31;;;;;;;13.98;2.15;;;10.90;99.90;;;;;;5035619;28;20512;-54
2022/12/31 01:53:58;;;;;;;11.48;2.05;;;10.90;99.90;;;;;;5047623;28;20384;-53
2022/12/31 01:56:25;;;;;;;11.65;2.45;;;10.90;99.90;;;;;;5052914;28;20048;-53
2022/12/31 01:58:51;;;;;;;10.95;2.10;;;11.00;99.90;;;;;;5052799;28;20123;-49
2022/12/31 02:01:18;;;;;;;14.25;2.10;;;11.00;99.90;;;;;;5053077;28;20174;-52
2022/12/31 02:03:45;;;;;;;12.32;3.03;;;11.00;99.90;;;;;;5056629;28;20072;-51
2022/12/31 02:06:12;;;;;;;14.02;2.10;;;11.00;99.90;;;;;;5040441;28;20096;-50
2022/12/31 02:08:38;;;;;;;13.23;2.13;;;11.00;99.90;;;;;;5036671;28;20045;-50
2022/12/31 02:11:08;;;;;;;13.68;2.70;;;11.00;99.90;;;;;;5036777;28;20053;-56
2022/12/31 02:13:34;;;;;;;10.70;1.80;;;11.00;99.90;;;;;;5048200;28;20106;-48
2022/12/31 02:16:01;;;;;;;14.02;2.33;;;11.10;99.90;;;;;;5056416;28;20127;-50
2022/12/31 02:18:28;;;;;;;8.88;2.20;;;11.10;99.90;;;;;;5056728;28;20435;-50
2022/12/31 02:20:55;;;;;;;9.48;1.98;;;11.10;99.90;;;;;;5056473;28;20041;-49
2022/12/31 02:23:22;;;;;;;7.78;1.92;;;11.10;99.90;;;;;;5044291;28;20060;-47
2022/12/31 02:25:48;;;;;;;11.10;1.60;;;11.10;99.90;;;;;;5036557;28;20552;-50
2022/12/31 02:28:15;;;;;;;8.85;1.80;;;11.10;99.90;;;;;;5036567;28;20046;-53
2022/12/31 02:30:42;;;;;;;9.35;2.58;;;11.10;99.90;;;;;;5036654;28;20041;-50
2022/12/31 02:33:09;;;;;;;11.13;1.48;;;11.10;99.90;;;;;;5036658;28;20107;-50
2022/12/31 02:35:35;;;;;;;8.00;1.70;;;11.10;99.90;;;;;;5034769;28;20436;-52
2022/12/31 02:38:02;;;;;;;6.72;1.45;;;11.10;99.90;;;;;;5037304;28;20080;-51
2022/12/31 02:40:29;;;;;;;5.53;1.10;;;11.10;99.90;;;;;;5035063;28;20432;-49
2022/12/31 02:42:55;;;;;;;7.35;1.50;;;11.10;99.90;;;;;;5043038;28;20072;-53
2022/12/31 02:45:22;;;;;;;5.45;1.48;;;11.10;99.90;;;;;;5056145;28;20041;-49
2022/12/31 02:47:49;;;;;;;6.05;1.45;;;11.20;99.90;;;;;;5054596;28;20124;-53
2022/12/31 02:50:16;;;;;;;9.50;1.70;;;11.10;99.90;;;;;;5055635;28;20045;-54
2022/12/31 02:52:43;;;;;;;6.60;1.20;;;11.20;99.90;;;;;;5049924;28;20034;-52
2022/12/31 02:55:09;;;;;;;9.80;1.58;;;11.20;99.90;;;;;;5035941;28;20133;-55
2022/12/31 02:57:36;;;;;;;6.05;1.45;;;11.20;99.90;;;;;;5035955;28;20038;-50
2022/12/31 03:02:48;;;;;;;8.40;1.52;;;11.20;99.90;;;;;;5054114;28;20096;-51
2022/12/31 03:05:15;;;;;;;5.22;1.13;;;11.20;99.90;;;;;;5055780;28;20123;-50
2022/12/31 03:07:42;;;;;;;8.00;1.15;;;11.20;99.90;;;;;;5047768;28;20041;-54
2022/12/31 03:10:08;;;;;;;7.40;2.08;;;11.20;99.90;;;;;;5045312;28;20044;-48
2022/12/31 03:12:47;;;;;;;8.68;1.30;;;11.20;99.90;;;;;;5055590;28;20045;-54
2022/12/31 03:15:20;;;;;;;5.53;1.10;;;11.20;99.90;;;;;;5055183;28;20111;-53
2022/12/31 03:17:47;;;;;;;7.05;1.00;;;11.20;99.90;;;;;;5055628;28;20049;-52
2022/12/31 03:22:59;;;;;;;3.92;0.77;;;11.30;99.90;;;;;;5034725;28;20133;-50
2022/12/31 03:25:36;;;;;;;5.60;0.82;;;11.30;99.90;;;;;;5035152;28;20046;-55
2022/12/31 03:28:03;;;;;;;3.20;0.75;;;11.30;99.90;;;;;;5035171;28;20049;-52
2022/12/31 03:30:30;;;;;;;2.83;0.60;;;11.30;99.90;;;;;;5035198;28;20041;-53
2022/12/31 03:32:57;;;;;;;3.17;0.70;;;11.30;99.90;;;;;;5035177;28;20046;-50
2022/12/31 03:35:24;;;;;;;4.50;0.73;;;11.30;99.90;;;;;;5034814;28;20080;-52
2022/12/31 03:37:51;;;;;;;2.50;0.65;;;11.30;99.90;;;;;;5035309;28;20046;-51
2022/12/31 03:40:17;;;;;;;3.95;0.55;;;11.30;99.90;;;;;;5035369;28;20497;-51
2022/12/31 03:42:44;;;;;;;2.97;0.40;;;11.20;99.90;;;;;;5034901;28;20389;-55
2022/12/31 03:45:11;;;;;;;0.95;0.30;;;11.20;99.90;;;;;;5044218;28;20427;-53
2022/12/31 03:47:38;;;;;;;1.02;0.20;;;11.20;99.90;;;;;;5055008;28;20068;-50
2022/12/31 03:50:04;;;;;;;1.13;0.30;;;11.20;99.90;;;;;;5055014;28;20102;-55
2022/12/31 03:52:31;;;;;;;0.75;0.17;;;11.20;99.90;;;;;;5049822;28;20108;-52
2022/12/31 03:54:58;;;;;;;1.67;0.30;;;11.20;99.90;;;;;;5034609;28;20057;-51
2022/12/31 03:57:24;;;;;;;0.40;0.20;;;11.20;99.90;;;;;;5034508;28;20041;-52
2022/12/31 03:59:51;;;;;;;0.30;0.15;;;11.20;99.90;;;;;;5034233;28;20034;-55
2022/12/31 04:02:18;;;;;;;0.60;0.10;;;11.20;99.90;;;;;;5034896;28;20444;-55
2022/12/31 04:04:53;;;;;;;0.32;0.15;;;11.20;99.90;;;;;;5037113;28;20088;-52
2022/12/31 04:07:20;;;;;;;0.28;0.13;;;11.20;99.90;;;;;;5032193;28;20143;-55
2022/12/31 04:09:47;;;;;;;0.20;0.20;;;11.20;99.90;;;;;;5039689;28;20072;-55
2022/12/31 04:12:13;;;;;;;0.43;0.20;;;11.20;99.90;;;;;;5039042;28;20092;-54
2022/12/31 04:14:40;;;;;;;1.63;0.30;;;11.30;99.90;;;;;;5054113;28;20053;-55
2022/12/31 04:17:07;;;;;;;0.47;0.20;;;11.30;99.90;;;;;;5054057;28;20071;-56
2022/12/31 04:19:33;;;;;;;1.40;0.20;;;11.30;99.90;;;;;;5040637;28;20103;-54
2022/12/31 04:22:00;;;;;;;0.45;0.20;;;11.30;99.90;;;;;;5033686;28;20595;-54
2022/12/31 04:24:27;;;;;;;0.10;0.10;;;11.40;99.90;;;;;;5033613;28;20124;-55
2022/12/31 04:26:54;;;;;;;1.83;0.20;;;11.40;99.90;;;;;;5034045;28;20064;-53
2022/12/31 04:29:21;;;;;;;0.47;0.20;;;11.50;99.90;;;;;;5033884;28;20049;-55
2022/12/31 04:31:48;;;;;;;2.35;0.30;;;11.50;99.90;;;;;;5034427;28;20048;-53
2022/12/31 04:34:14;;;;;;;1.23;0.35;;;11.60;99.90;;;;;;5034204;28;20050;-51
2022/12/31 04:36:41;;;;;;;1.52;0.40;;;11.60;99.90;;;;;;5033890;28;20041;-50
2022/12/31 04:39:08;;;;;;;2.13;0.73;;;11.70;99.90;;;;;;5033724;28;20489;-52
2022/12/31 04:41:35;;;;;;;4.00;0.40;;;11.80;99.90;;;;;;5033799;28;20041;-55
2022/12/31 04:44:01;;;;;;;2.88;0.65;;;11.80;99.90;;;;;;5034005;28;20045;-52
2022/12/31 04:46:28;;;;;;;3.55;0.50;;;11.90;99.90;;;;;;5034171;28;20045;-54
2022/12/31 04:48:55;;;;;;;3.15;0.50;;;11.90;99.90;;;;;;5033677;28;20044;-54
2022/12/31 04:51:22;;;;;;;3.38;0.50;;;12.00;99.90;;;;;;5042304;28;20400;-54
2022/12/31 04:53:48;;;;;;;4.50;1.00;;;12.00;99.90;;;;;;5038752;28;20053;-51
2022/12/31 04:56:16;;;;;;;5.72;1.00;;;12.00;99.90;;;;;;5033416;28;20124;-50
2022/12/31 04:58:42;;;;;;;5.72;1.23;;;12.10;99.90;;;;;;5034027;28;20115;-52
2022/12/31 05:01:09;;;;;;;8.57;1.42;;;12.10;99.90;;;;;;5052701;28;20045;-53
2022/12/31 05:03:36;;;;;;;7.47;1.50;;;12.10;99.90;;;;;;5053412;28;20037;-48
2022/12/31 05:06:03;;;;;;;9.60;1.52;;;12.20;99.90;;;;;;5053065;28;20103;-56
2022/12/31 05:08:29;;;;;;;10.70;1.90;;;12.30;99.90;;;;;;5053752;28;20069;-54
2022/12/31 05:10:56;;;;;;;10.82;2.53;;;12.30;99.90;;;;;;5048506;28;20069;-52
2022/12/31 05:13:23;;;;;;;10.30;2.00;;;12.40;99.90;;;;;;5033261;28;20049;-55
2022/12/31 05:15:58;;;;;;;9.00;1.95;;;12.40;99.90;;;;;;5033384;28;20484;-56
2022/12/31 05:18:25;;;;;;;13.82;2.30;;;12.40;99.90;;;;;;5033603;28;20046;-52
2022/12/31 05:20:52;;;;;;;14.68;2.42;;;12.40;99.90;;;;;;5033662;28;20076;-53
2022/12/31 05:23:18;;;;;;;13.52;2.60;;;12.40;99.90;;;;;;5033240;28;20562;-53
2022/12/31 05:25:45;;;;;;;10.73;2.22;;;12.50;99.90;;;;;;5037352;28;20511;-51
2022/12/31 05:28:12;;;;;;;13.00;2.38;;;12.60;99.90;;;;;;5053074;28;20045;-55
2022/12/31 05:30:38;;;;;;;13.77;2.38;;;12.60;99.90;;;;;;5050570;28;20059;-52
2022/12/31 05:33:05;;;;;;;11.82;2.45;;;12.60;99.90;;;;;;5033712;28;20041;-53
2022/12/31 05:35:32;;;;;;;12.77;2.78;;;12.60;99.90;;;;;;5033241;28;20084;-56
2022/12/31 05:37:59;;;;;;;10.27;2.15;;;12.70;99.90;;;;;;5037187;28;20546;-55
2022/12/31 05:40:25;;;;;;;9.32;2.08;;;12.70;99.90;;;;;;5037664;28;20381;-51
2022/12/31 05:42:52;;;;;;;11.32;2.10;;;12.70;99.90;;;;;;5037247;28;20104;-51
2022/12/31 05:45:19;;;;;;;9.68;2.38;;;12.70;99.90;;;;;;5036348;28;20046;-49
2022/12/31 05:47:52;;;;;;;10.13;2.10;;;12.80;99.90;;;;;;5036490;28;20049;-56
2022/12/31 05:50:19;;;;;;;10.15;2.17;;;12.80;99.90;;;;;;5036899;28;20057;-50
2022/12/31 05:52:54;;;;;;;10.38;2.00;;;12.90;99.90;;;;;;5036712;28;20077;-53
2022/12/31 05:55:20;;;;;;;9.10;1.75;;;12.90;99.90;;;;;;5036554;28;20048;-51
2022/12/31 05:57:47;;;;;;;10.27;2.00;;;12.90;99.90;;;;;;5037283;28;20084;-53
2022/12/31 06:00:14;;;;;;;8.23;1.90;;;12.90;99.90;;;;;;5036950;28;20041;-53
2022/12/31 06:02:41;;;;;;;12.60;2.17;;;12.90;99.90;;;;;;5036605;28;20038;-54
2022/12/31 06:05:07;;;;;;;11.98;2.10;;;12.90;99.90;;;;;;5036435;28;20037;-53
2022/12/31 06:07:34;;;;;;;14.77;2.40;;;12.90;99.90;;;;;;5036191;28;20053;-48
2022/12/31 06:10:02;;;;;;;11.90;2.72;;;13.00;99.90;;;;;;5036160;28;20077;-56
2022/12/31 06:12:29;;;;;;;12.90;2.45;;;13.00;99.90;;;;;;5036037;28;20444;-54
2022/12/31 06:14:56;;;;;;;12.70;2.63;;;13.00;99.90;;;;;;5035612;28;20064;-50
2022/12/31 06:17:23;;;;;;;15.13;3.33;;;13.00;99.90;;;;;;5034678;28;20026;-50
2022/12/31 06:19:49;;;;;;;12.25;2.35;;;13.00;99.90;;;;;;5036452;28;20046;-54
2022/12/31 06:22:17;;;;;;;12.68;2.95;;;13.00;99.90;;;;;;5035221;28;20087;-54
2022/12/31 06:24:44;;;;;;;16.08;3.00;;;13.00;99.90;;;;;;5052810;28;20087;-53
2022/12/31 06:27:11;;;;;;;13.60;3.25;;;13.10;99.90;;;;;;5049521;28;20068;-51
2022/12/31 06:29:37;;;;;;;14.60;3.63;;;13.10;99.90;;;;;;5036783;28;20046;-53
2022/12/31 06:32:04;;;;;;;15.65;3.20;;;13.10;99.90;;;;;;5034346;28;20038;-50
2022/12/31 06:34:31;;;;;;;15.48;3.20;;;13.10;99.90;;;;;;5036758;28;20052;-50
2022/12/31 06:36:58;;;;;;;13.40;3.20;;;13.10;99.90;;;;;;5035925;28;20103;-53
2022/12/31 06:39:24;;;;;;;18.73;3.72;;;13.10;99.90;;;;;;5036332;28;20033;-49
2022/12/31 06:41:51;;;;;;;16.95;3.45;;;13.10;99.90;;;;;;5035988;28;20099;-51
2022/12/31 06:44:21;;;;;;;25.42;3.78;;;13.10;99.90;;;;;;5036058;28;20037;-48
2022/12/31 06:46:48;;;;;;;13.38;2.85;;;13.10;99.90;;;;;;5035898;28;20049;-52
2022/12/31 06:49:15;;;;;;;15.77;2.78;;;13.00;99.90;;;;;;5035248;28;20124;-49
2022/12/31 06:51:44;;;;;;;13.55;3.45;;;13.00;99.90;;;;;;5037309;28;20045;-52
2022/12/31 06:54:12;;;;;;;17.17;3.30;;;13.00;99.90;;;;;;5035685;28;20045;-48
2022/12/31 06:56:38;;;;;;;16.08;3.40;;;13.00;99.90;;;;;;5035388;28;20041;-51
2022/12/31 06:59:05;;;;;;;14.27;2.78;;;13.00;99.90;;;;;;5034510;28;20042;-52
2022/12/31 07:01:32;;;;;;;17.25;3.38;;;13.00;99.90;;;;;;5034242;28;20033;-51
2022/12/31 07:03:59;;;;;;;18.00;3.10;;;13.00;99.90;;;;;;5037547;28;20045;-50
2022/12/31 07:06:26;;;;;;;17.42;3.38;;;13.00;99.90;;;;;;5035886;28;20041;-55
2022/12/31 07:08:52;;;;;;;15.48;3.20;;;13.00;99.90;;;;;;5035784;28;20064;-48
2022/12/31 07:11:19;;;;;;;14.88;3.33;;;13.00;99.90;;;;;;5033428;28;20080;-51
2022/12/31 07:13:46;;;;;;;14.70;3.25;;;13.00;99.90;;;;;;5036621;28;20065;-49
2022/12/31 07:16:12;;;;;;;14.93;2.85;;;13.00;99.90;;;;;;5034856;28;20038;-50
2022/12/31 07:18:39;;;;;;;13.52;2.63;;;12.90;99.90;;;;;;5035775;28;20128;-52
2022/12/31 07:21:06;;;;;;;8.48;2.10;;;13.00;99.90;;;;;;5035178;28;20365;-51
2022/12/31 07:23:33;;;;;;;10.93;2.35;;;13.00;99.90;;;;;;5034820;28;20052;-53
2022/12/31 07:25:59;;;;;;;10.20;2.10;;;13.00;99.90;;;;;;5035512;28;20043;-54
2022/12/31 07:28:26;;;;;;;9.73;2.00;;;13.00;99.90;;;;;;5033521;28;20076;-51
2022/12/31 07:30:53;;;;;;;11.70;2.00;;;13.00;99.90;;;;;;5034863;28;20041;-51
2022/12/31 07:33:20;;;;;;;13.88;2.42;;;13.00;99.90;;;;;;5035081;28;20048;-49
2022/12/31 07:35:46;;;;;;;11.13;2.90;;;13.00;99.90;;;;;;5035272;28;20037;-52
2022/12/31 07:38:13;;;;;;;14.52;2.50;;;13.00;99.90;;;;;;5035026;28;20046;-48
2022/12/31 07:40:40;;;;;;;8.60;2.28;;;13.00;99.90;;;;;;5035207;28;20037;-47
2022/12/31 07:43:07;;;;;;;13.55;2.70;;;12.90;99.90;;;;;;5034248;28;20431;-48
2022/12/31 07:45:33;;;;;;;13.55;2.70;;;12.90;99.90;;;;;;5034695;28;20100;-49
2022/12/31 07:48:00;;;;;;;15.27;2.80;;;12.90;99.90;;;;;;5041029;28;20052;-48
2022/12/31 07:50:28;;;;;;;15.23;2.83;;;12.90;99.90;;;;;;5034604;28;20120;-48
2022/12/31 07:52:55;;;;;;;18.75;3.42;;;12.90;99.90;;;;;;5034739;28;20072;-49
2022/12/31 07:55:22;;;;;;;20.40;3.75;;;12.90;99.90;;;;;;5034886;28;20053;-50
2022/12/31 07:57:48;;;;;;;20.83;3.38;;;12.90;99.90;;;;;;5034147;28;20029;-47
2022/12/31 08:00:16;;;;;;;16.27;2.97;;;12.90;99.90;;;;;;5034038;28;20132;-51
2022/12/31 08:02:43;;;;;;;16.83;3.10;;;12.90;99.90;;;;;;5033523;28;20037;-48
2022/12/31 08:05:09;;;;;;;18.05;3.40;;;12.90;99.90;;;;;;5034819;28;20033;-48
2022/12/31 08:07:36;;;;;;;19.20;3.15;;;12.90;99.90;;;;;;5033953;28;20079;-54
2022/12/31 08:10:03;;;;;;;19.63;4.22;;;13.00;99.90;;;;;;5034375;28;20107;-50
2022/12/31 08:12:30;;;;;;;21.20;4.05;;;13.00;99.90;;;;;;5034436;28;20124;-48
2022/12/31 08:14:56;;;;;;;17.52;3.83;;;13.00;99.90;;;;;;5033428;28;20060;-48
2022/12/31 08:17:23;;;;;;;15.85;3.13;;;13.00;99.90;;;;;;5034157;28;20066;-48
2022/12/31 08:19:50;;;;;;;16.23;3.83;;;13.00;99.90;;;;;;5032864;28;20091;-50
2022/12/31 08:22:17;;;;;;;18.75;4.07;;;13.10;99.90;;;;;;5039085;28;20036;-47
2022/12/31 08:24:44;;;;;;;17.52;3.40;;;13.00;99.90;;;;;;5054767;28;20377;-48
2022/12/31 08:27:10;;;;;;;20.90;3.70;;;13.00;99.90;;;;;;5054109;28;20392;-48
2022/12/31 08:29:37;;;;;;;22.80;4.30;;;13.10;99.90;;;;;;5052158;28;20045;-52
2022/12/31 08:32:04;;;;;;;23.90;3.78;;;13.10;99.90;;;;;;5033804;28;20041;-49
2022/12/31 08:34:31;;;;;;;21.95;3.92;;;13.10;99.90;;;;;;5034852;28;20038;-48
2022/12/31 08:36:57;;;;;;;22.90;4.68;;;13.10;99.90;;;;;;5033495;28;20041;-52
2022/12/31 08:39:24;;;;;;;26.52;3.85;;;13.10;99.90;;;;;;5033275;28;20038;-50
2022/12/31 08:41:51;;;;;;;21.52;3.67;;;13.10;99.90;;;;;;5034150;28;20068;-52
2022/12/31 08:44:18;;;;;;;18.60;3.97;;;13.10;99.90;;;;;;5033120;28;20382;-47
2022/12/31 08:46:44;;;;;;;18.70;3.83;;;13.10;99.90;;;;;;5033802;28;20065;-50
2022/12/31 08:49:13;;;;;;;23.60;4.32;;;13.10;99.90;;;;;;5033458;28;20163;-48
2022/12/31 08:51:40;;;;;;;18.35;3.85;;;13.10;99.90;;;;;;5035937;28;20045;-48
2022/12/31 08:54:06;;;;;;;25.10;4.07;;;13.10;99.90;;;;;;5035454;28;20045;-47
2022/12/31 08:56:33;;;;;;;19.80;3.97;;;13.10;99.90;;;;;;5033746;28;20424;-50
2022/12/31 08:59:00;;;;;;;22.60;3.80;;;13.00;99.90;;;;;;5033320;28;20038;-50
2022/12/31 09:01:27;;;;;;;20.45;3.85;;;13.10;99.90;;;;;;5031924;28;20060;-53
2022/12/31 09:03:54;;;;;;;18.88;4.30;;;13.10;99.90;;;;;;5032028;28;20080;-51
2022/12/31 09:06:20;;;;;;;17.42;3.35;;;13.00;99.90;;;;;;5033169;28;20041;-56
2022/12/31 09:08:47;;;;;;;21.08;4.43;;;13.00;99.90;;;;;;5033090;28;20037;-51
2022/12/31 09:11:14;;;;;;;20.50;3.90;;;13.00;99.90;;;;;;5032181;28;20045;-55
2022/12/31 09:13:48;;;;;;;22.00;4.10;;;13.00;99.90;;;;;;5033113;28;20345;-53
2022/12/31 09:16:15;;;;;;;20.98;3.75;;;13.00;99.90;;;;;;5039582;28;20053;-48
2022/12/31 09:18:42;;;;;;;20.70;5.05;;;13.00;99.90;;;;;;5036061;28;20108;-53
2022/12/31 09:21:09;;;;;;;21.70;4.20;;;13.00;99.90;;;;;;5040596;28;20048;-48
2022/12/31 09:23:36;;;;;;;21.25;4.78;;;13.00;99.90;;;;;;5053859;28;20045;-52
2022/12/31 09:26:02;;;;;;;19.45;3.85;;;13.10;99.90;;;;;;5043149;28;20049;-49
2022/12/31 09:28:31;;;;;;;20.50;4.38;;;13.10;99.90;;;;;;5039940;28;20538;-52
2022/12/31 09:30:58;;;;;;;22.98;4.75;;;13.10;99.90;;;;;;5033630;28;20060;-54
2022/12/31 09:33:25;;;;;;;24.27;5.03;;;13.10;99.90;;;;;;5038786;28;20153;-51
2022/12/31 09:35:51;;;;;;;20.17;4.47;;;13.10;99.90;;;;;;5053158;28;20507;-53
2022/12/31 09:38:18;;;;;;;22.08;4.85;;;13.10;99.90;;;;;;5053492;28;20068;-51
2022/12/31 09:40:45;;;;;;;19.73;3.80;;;13.10;99.90;;;;;;5043770;28;20041;-55
2022/12/31 09:43:12;;;;;;;20.90;4.07;;;13.10;99.90;;;;;;5053639;28;20087;-55
2022/12/31 09:45:38;;;;;;;18.48;4.25;;;13.20;99.90;;;;;;5052017;28;20041;-52
2022/12/31 09:48:05;;;;;;;17.73;3.92;;;13.20;99.90;;;;;;5053614;28;20056;-52
2022/12/31 09:50:32;;;;;;;23.15;4.30;;;13.20;99.90;;;;;;5053136;28;20454;-51
2022/12/31 09:52:59;;;;;;;19.85;3.83;;;13.20;99.90;;;;;;5034032;28;20041;-51
2022/12/31 09:55:25;;;;;;;18.85;4.38;;;13.20;99.90;;;;;;5033023;28;20045;-56
2022/12/31 09:57:52;;;;;;;20.88;4.07;;;13.20;99.90;;;;;;5036016;28;20037;-55
2022/12/31 10:00:19;;;;;;;18.70;4.55;;;13.20;99.90;;;;;;5039938;28;20037;-53
2022/12/31 10:02:45;;;;;;;18.90;3.38;;;13.20;99.90;;;;;;5040069;28;20037;-54
2022/12/31 10:05:12;;;;;;;15.35;3.15;;;13.20;99.90;;;;;;5046323;28;20429;-55
2022/12/31 10:07:39;;;;;;;17.58;3.92;;;13.20;99.90;;;;;;5039828;28;20424;-54
2022/12/31 10:10:06;;;;;;;14.45;3.08;;;13.20;99.90;;;;;;5034254;28;20075;-50
2022/12/31 10:12:33;;;;;;;17.58;3.65;;;13.10;99.90;;;;;;5035176;28;20481;-54
2022/12/31 10:15:00;;;;;;;14.10;3.15;;;13.10;99.90;;;;;;5033057;28;20061;-53
2022/12/31 10:17:26;;;;;;;14.05;3.03;;;13.10;99.90;;;;;;5035735;28;20068;-51
2022/12/31 10:19:53;;;;;;;13.13;2.97;;;13.10;99.90;;;;;;5047082;28;20037;-51
2022/12/31 10:22:20;;;;;;;10.40;2.92;;;13.10;99.90;;;;;;5032287;28;20558;-51
2022/12/31 10:24:47;;;;;;;7.53;2.20;;;13.20;99.90;;;;;;5038257;28;20038;-54
2022/12/31 10:27:15;;;;;;;8.43;1.88;;;13.20;99.90;;;;;;5055725;28;20094;-53
2022/12/31 10:29:42;;;;;;;15.35;2.45;;;13.20;99.90;;;;;;5041986;28;20038;-49
2022/12/31 10:32:08;;;;;;;8.50;1.80;;;13.20;99.90;;;;;;5036905;28;20041;-55
2022/12/31 10:34:35;;;;;;;7.43;1.75;;;13.20;99.90;;;;;;5036061;28;20599;-56
2022/12/31 10:37:02;;;;;;;7.55;2.03;;;13.20;99.90;;;;;;5041598;28;20041;-57
2022/12/31 10:39:29;;;;;;;8.55;2.10;;;13.30;99.90;;;;;;5046600;28;20039;-54
2022/12/31 10:41:56;;;;;;;6.32;1.63;;;13.30;99.90;;;;;;5040148;28;20120;-56
2022/12/31 10:44:22;;;;;;;5.75;1.50;;;13.30;99.90;;;;;;5047697;28;20049;-52
2022/12/31 10:46:49;;;;;;;7.35;1.65;;;13.30;99.90;;;;;;5049913;28;20539;-52
2022/12/31 10:49:16;;;;;;;6.18;1.38;;;13.30;99.90;;;;;;5042913;28;20104;-49
2022/12/31 10:51:43;;;;;;;3.50;1.10;;;13.30;99.90;;;;;;5041495;28;20041;-53
2022/12/31 10:54:09;;;;;;;4.55;1.30;;;13.30;99.90;;;;;;5037386;28;20041;-55
2022/12/31 10:56:36;;;;;;;5.28;1.38;;;13.30;99.90;;;;;;5035844;28;20042;-52
2022/12/31 10:59:03;;;;;;;3.47;0.95;;;13.30;99.90;;;;;;5036051;28;20042;-53
2022/12/31 11:01:31;;;;;;;4.05;1.13;;;13.20;99.90;;;;;;5035978;28;20045;-54
2022/12/31 11:03:58;;;;;;;4.40;1.05;;;13.20;99.90;;;;;;5040501;28;20099;-52
2022/12/31 11:06:25;;;;;;;5.18;1.10;;;13.20;99.90;;;;;;5037852;28;20076;-54
2022/12/31 11:08:52;;;;;;;4.20;1.00;;;13.20;99.90;;;;;;5037967;28;20037;-51
2022/12/31 11:11:18;;;;;;;4.07;1.10;;;13.20;99.90;;;;;;5046649;28;20041;-55
2022/12/31 11:13:45;;;;;;;2.38;0.77;;;13.20;99.90;;;;;;5034503;28;20057;-51
2022/12/31 11:16:12;;;;;;;3.13;0.73;;;13.20;99.90;;;;;;5033880;28;20072;-55
2022/12/31 11:18:39;;;;;;;3.88;0.90;;;13.20;99.90;;;;;;5035735;28;20034;-55
2022/12/31 11:21:05;;;;;;;3.67;0.90;;;13.20;99.90;;;;;;5043226;28;20045;-53
2022/12/31 11:23:32;;;;;;;2.92;0.90;;;13.10;99.90;;;;;;5046340;28;20037;-54
2022/12/31 11:25:59;;;;;;;2.78;0.80;;;13.10;99.90;;;;;;5047724;28;20041;-54
2022/12/31 11:28:26;;;;;;;3.25;0.80;;;13.00;99.90;;;;;;5039598;28;20095;-49
2022/12/31 11:30:52;;;;;;;3.60;0.80;;;13.00;99.90;;;;;;5043145;28;20041;-52
2022/12/31 11:33:19;;;;;;;2.28;0.75;;;13.00;99.90;;;;;;5039505;28;20038;-55
2022/12/31 11:35:49;;;;;;;2.58;0.70;;;12.90;99.90;;;;;;5031085;28;20064;-54
2022/12/31 11:38:16;;;;;;;3.10;0.80;;;12.90;99.90;;;;;;5034984;28;20091;-48
2022/12/31 11:40:46;;;;;;;2.42;0.60;;;12.90;99.90;;;;;;5052669;28;20045;-54
2022/12/31 11:43:13;;;;;;;2.17;0.60;;;12.90;99.90;;;;;;5044623;28;20492;-51
2022/12/31 11:45:40;;;;;;;3.35;0.82;;;12.90;99.90;;;;;;5037965;28;20033;-50
2022/12/31 11:48:15;;;;;;;;;;;12.90;99.90;;;;;;5036436;28;20045;-54
2022/12/31 11:50:58;;;;;;;1.75;0.57;;;12.80;99.90;;;;;;5047765;28;19929;-53
2022/12/31 11:53:25;;;;;;;1.77;0.65;;;12.80;99.90;;;;;;5041455;28;20099;-53
2022/12/31 11:55:52;;;;;;;1.50;0.60;;;12.80;99.90;;;;;;5040318;28;20042;-50
2022/12/31 11:58:27;;;;;;;2.15;0.60;;;12.80;99.90;;;;;;5040646;28;20045;-52
2022/12/31 12:00:54;;;;;;;1.83;0.75;;;12.80;99.90;;;;;;5046214;28;20041;-52
2022/12/31 12:03:21;;;;;;;3.90;1.05;;;12.70;99.90;;;;;;5034413;28;20068;-52
2022/12/31 12:05:48;;;;;;;4.22;0.88;;;12.80;99.90;;;;;;5044930;28;20083;-52
2022/12/31 12:08:15;;;;;;;4.85;1.27;;;12.80;99.90;;;;;;5034608;28;20049;-49
2022/12/31 12:10:42;;;;;;;8.40;1.98;;;12.80;99.90;;;;;;5047729;28;20116;-53
2022/12/31 12:13:08;;;;;;;8.05;1.92;;;12.80;99.90;;;;;;5053005;28;20040;-53
2022/12/31 12:15:35;;;;;;;10.02;2.42;;;12.80;99.90;;;;;;5043631;28;20057;-51
2022/12/31 12:18:02;;;;;;;13.88;3.72;;;12.90;99.90;;;;;;5050608;28;20120;-52
2022/12/31 12:20:28;;;;;;;10.13;2.55;;;12.90;99.90;;;;;;5046609;28;20488;-52
2022/12/31 12:22:56;;;;;;;13.32;3.17;;;13.00;99.90;;;;;;5035511;28;20523;-54
2022/12/31 12:25:22;;;;;;;12.50;2.75;;;13.00;99.90;;;;;;5034910;28;20088;-54
2022/12/31 12:27:49;;;;;;;12.90;3.58;;;13.00;99.90;;;;;;5048139;28;20044;-53
2022/12/31 12:30:16;;;;;;;18.02;3.50;;;13.00;99.90;;;;;;5040153;28;20041;-51
2022/12/31 12:32:42;;;;;;;12.88;3.25;;;13.00;99.90;;;;;;5034271;28;20045;-54
2022/12/31 12:35:09;;;;;;;14.73;3.20;;;13.10;99.90;;;;;;5032877;28;20637;-53
2022/12/31 12:37:36;;;;;;;15.10;3.58;;;13.10;99.90;;;;;;5053893;28;20041;-53
2022/12/31 12:40:03;;;;;;;14.90;3.50;;;13.10;99.90;;;;;;5042278;28;20033;-53
2022/12/31 12:42:30;;;;;;;19.88;3.88;;;13.00;99.90;;;;;;5053129;28;20439;-49
2022/12/31 12:44:59;;;;;;;16.08;3.40;;;13.10;99.90;;;;;;5051869;28;20049;-53